sensor_id;sensor_type;location;lat;lon;timestamp;P1;durP1;ratioP1;P2;durP2;ratioP2
7398;SDS011;3740;50.700;7.184;2022-09-01T00:02:05;2.60;;;2.50;;
7398;SDS011;3740;50.700;7.184;2022-09-01T00:04:33;2.42;;;2.22;;
7398;SDS011;3740;50.700;7.184;2022-09-01T00:07:03;2.55;;;2.45;;
7398;SDS011;3740;50.700;7.184;2022-09-01T00:09:29;2.75;;;2.40;;
7398;SDS011;3740;50.700;7.184;2022-09-01T00:11:56;2.42;;;2.20;;
7398;SDS011;3740;50.700;7.184;2022-09-01T00:14:23;2.50;;;2.40;;
7398;SDS011;3740;50.700;7.184;2022-09-01T00:16:50;2.42;;;2.33;;
7398;SDS011;3740;50.700;7.184;2022-09-01T00:19:18;2.95;;;2.53;;
7398;SDS011;3740;50.700;7.184;2022-09-01T00:21:44;1.98;;;1.88;;
7398;SDS011;3740;50.700;7.184;2022-09-01T00:24:12;2.20;;;2.10;;
7398;SDS011;3740;50.700;7.184;2022-09-01T00:26:40;3.25;;;2.40;;
7398;SDS011;3740;50.700;7.184;2022-09-01T00:29:05;2.53;;;2.30;;
7398;SDS011;3740;50.700;7.184;2022-09-01T00:31:33;4.20;;;2.33;;
7398;SDS011;3740;50.700;7.184;2022-09-01T00:33:59;2.45;;;2.35;;
7398;SDS011;3740;50.700;7.184;2022-09-01T00:36:25;2.80;;;2.60;;
7398;SDS011;3740;50.700;7.184;2022-09-01T00:38:52;2.50;;;2.25;;
7398;SDS011;3740;50.700;7.184;2022-09-01T00:41:19;2.60;;;2.50;;
7398;SDS011;3740;50.700;7.184;2022-09-01T00:43:52;2.35;;;2.25;;
7398;SDS011;3740;50.700;7.184;2022-09-01T00:46:31;2.67;;;2.50;;
7398;SDS011;3740;50.700;7.184;2022-09-01T00:49:00;2.63;;;2.47;;
7398;SDS011;3740;50.700;7.184;2022-09-01T00:51:30;2.92;;;2.72;;
7398;SDS011;3740;50.700;7.184;2022-09-01T00:53:57;2.70;;;2.50;;
7398;SDS011;3740;50.700;7.184;2022-09-01T00:56:24;2.83;;;2.63;;
7398;SDS011;3740;50.700;7.184;2022-09-01T00:58:54;2.40;;;2.30;;
7398;SDS011;3740;50.700;7.184;2022-09-01T01:01:20;2.60;;;2.25;;
7398;SDS011;3740;50.700;7.184;2022-09-01T01:03:47;2.78;;;2.50;;
7398;SDS011;3740;50.700;7.184;2022-09-01T01:06:13;2.63;;;2.42;;
7398;SDS011;3740;50.700;7.184;2022-09-01T01:08:42;2.88;;;2.10;;
7398;SDS011;3740;50.700;7.184;2022-09-01T01:11:29;2.58;;;2.38;;
7398;SDS011;3740;50.700;7.184;2022-09-01T01:13:58;2.00;;;1.90;;
7398;SDS011;3740;50.700;7.184;2022-09-01T01:16:32;2.72;;;2.53;;
7398;SDS011;3740;50.700;7.184;2022-09-01T01:19:00;2.35;;;2.20;;
7398;SDS011;3740;50.700;7.184;2022-09-01T01:21:29;2.22;;;2.13;;
7398;SDS011;3740;50.700;7.184;2022-09-01T01:26:47;2.30;;;2.15;;
7398;SDS011;3740;50.700;7.184;2022-09-01T01:29:13;3.33;;;2.33;;
7398;SDS011;3740;50.700;7.184;2022-09-01T01:31:39;2.25;;;2.15;;
7398;SDS011;3740;50.700;7.184;2022-09-01T01:34:05;2.47;;;2.28;;
7398;SDS011;3740;50.700;7.184;2022-09-01T01:36:33;2.25;;;2.05;;
7398;SDS011;3740;50.700;7.184;2022-09-01T01:41:37;2.40;;;2.20;;
7398;SDS011;3740;50.700;7.184;2022-09-01T01:44:09;2.50;;;2.28;;
7398;SDS011;3740;50.700;7.184;2022-09-01T01:46:39;2.60;;;2.30;;
7398;SDS011;3740;50.700;7.184;2022-09-01T01:49:08;2.35;;;2.13;;
7398;SDS011;3740;50.700;7.184;2022-09-01T01:51:37;2.65;;;2.45;;
7398;SDS011;3740;50.700;7.184;2022-09-01T01:54:03;2.30;;;2.20;;
7398;SDS011;3740;50.700;7.184;2022-09-01T01:56:29;2.10;;;2.00;;
7398;SDS011;3740;50.700;7.184;2022-09-01T01:58:57;2.33;;;2.10;;
7398;SDS011;3740;50.700;7.184;2022-09-01T02:01:27;2.63;;;2.42;;
7398;SDS011;3740;50.700;7.184;2022-09-01T02:03:54;2.67;;;2.47;;
7398;SDS011;3740;50.700;7.184;2022-09-01T02:06:22;2.55;;;2.30;;
7398;SDS011;3740;50.700;7.184;2022-09-01T02:08:52;2.25;;;2.15;;
7398;SDS011;3740;50.700;7.184;2022-09-01T02:11:23;4.43;;;2.45;;
7398;SDS011;3740;50.700;7.184;2022-09-01T02:13:53;3.40;;;2.30;;
7398;SDS011;3740;50.700;7.184;2022-09-01T02:16:23;2.65;;;2.42;;
7398;SDS011;3740;50.700;7.184;2022-09-01T02:18:51;2.60;;;2.40;;
7398;SDS011;3740;50.700;7.184;2022-09-01T02:21:19;2.25;;;2.05;;
7398;SDS011;3740;50.700;7.184;2022-09-01T02:23:47;3.08;;;2.40;;
7398;SDS011;3740;50.700;7.184;2022-09-01T02:26:23;3.05;;;2.50;;
7398;SDS011;3740;50.700;7.184;2022-09-01T02:28:55;2.15;;;2.00;;
7398;SDS011;3740;50.700;7.184;2022-09-01T02:31:21;2.33;;;2.13;;
7398;SDS011;3740;50.700;7.184;2022-09-01T02:33:47;2.53;;;2.33;;
7398;SDS011;3740;50.700;7.184;2022-09-01T02:36:14;2.63;;;2.47;;
7398;SDS011;3740;50.700;7.184;2022-09-01T02:38:41;2.17;;;2.05;;
7398;SDS011;3740;50.700;7.184;2022-09-01T02:41:08;2.40;;;2.20;;
7398;SDS011;3740;50.700;7.184;2022-09-01T02:43:36;2.28;;;2.17;;
7398;SDS011;3740;50.700;7.184;2022-09-01T02:46:03;2.60;;;2.40;;
7398;SDS011;3740;50.700;7.184;2022-09-01T02:48:32;2.63;;;2.47;;
7398;SDS011;3740;50.700;7.184;2022-09-01T02:51:05;2.75;;;2.55;;
7398;SDS011;3740;50.700;7.184;2022-09-01T02:53:32;2.30;;;2.10;;
7398;SDS011;3740;50.700;7.184;2022-09-01T02:55:59;2.43;;;2.33;;
7398;SDS011;3740;50.700;7.184;2022-09-01T02:58:26;2.70;;;2.42;;
7398;SDS011;3740;50.700;7.184;2022-09-01T03:00:55;2.53;;;2.43;;
7398;SDS011;3740;50.700;7.184;2022-09-01T03:03:21;2.70;;;2.50;;
7398;SDS011;3740;50.700;7.184;2022-09-01T03:05:49;2.83;;;2.42;;
7398;SDS011;3740;50.700;7.184;2022-09-01T03:08:21;2.60;;;2.38;;
7398;SDS011;3740;50.700;7.184;2022-09-01T03:10:48;2.50;;;2.30;;
7398;SDS011;3740;50.700;7.184;2022-09-01T03:13:17;2.67;;;2.47;;
7398;SDS011;3740;50.700;7.184;2022-09-01T03:15:44;2.50;;;2.30;;
7398;SDS011;3740;50.700;7.184;2022-09-01T03:18:11;2.40;;;2.20;;
7398;SDS011;3740;50.700;7.184;2022-09-01T03:20:38;3.73;;;2.70;;
7398;SDS011;3740;50.700;7.184;2022-09-01T03:23:08;2.77;;;2.57;;
7398;SDS011;3740;50.700;7.184;2022-09-01T03:25:39;2.83;;;2.47;;
7398;SDS011;3740;50.700;7.184;2022-09-01T03:28:05;2.67;;;2.47;;
7398;SDS011;3740;50.700;7.184;2022-09-01T03:30:32;2.30;;;2.20;;
7398;SDS011;3740;50.700;7.184;2022-09-01T03:33:00;2.80;;;2.60;;
7398;SDS011;3740;50.700;7.184;2022-09-01T03:35:27;2.53;;;2.30;;
7398;SDS011;3740;50.700;7.184;2022-09-01T03:37:56;2.60;;;2.40;;
7398;SDS011;3740;50.700;7.184;2022-09-01T03:40:26;3.00;;;2.70;;
7398;SDS011;3740;50.700;7.184;2022-09-01T03:43:00;2.53;;;2.33;;
7398;SDS011;3740;50.700;7.184;2022-09-01T03:45:28;2.80;;;2.60;;
7398;SDS011;3740;50.700;7.184;2022-09-01T03:47:55;3.00;;;2.80;;
7398;SDS011;3740;50.700;7.184;2022-09-01T03:50:21;2.30;;;2.20;;
7398;SDS011;3740;50.700;7.184;2022-09-01T03:52:49;3.07;;;2.87;;
7398;SDS011;3740;50.700;7.184;2022-09-01T03:55:21;3.43;;;2.70;;
7398;SDS011;3740;50.700;7.184;2022-09-01T03:57:56;2.70;;;2.50;;
7398;SDS011;3740;50.700;7.184;2022-09-01T04:00:27;2.80;;;2.60;;
7398;SDS011;3740;50.700;7.184;2022-09-01T04:02:54;2.73;;;2.53;;
7398;SDS011;3740;50.700;7.184;2022-09-01T04:05:25;2.80;;;2.60;;
7398;SDS011;3740;50.700;7.184;2022-09-01T04:07:56;3.23;;;2.93;;
7398;SDS011;3740;50.700;7.184;2022-09-01T04:10:24;2.53;;;2.40;;
7398;SDS011;3740;50.700;7.184;2022-09-01T04:12:50;2.73;;;2.53;;
7398;SDS011;3740;50.700;7.184;2022-09-01T04:15:17;2.67;;;2.50;;
7398;SDS011;3740;50.700;7.184;2022-09-01T04:17:43;2.90;;;2.60;;
7398;SDS011;3740;50.700;7.184;2022-09-01T04:20:28;2.80;;;2.60;;
7398;SDS011;3740;50.700;7.184;2022-09-01T04:22:53;3.00;;;2.50;;
7398;SDS011;3740;50.700;7.184;2022-09-01T04:25:20;2.90;;;2.70;;
7398;SDS011;3740;50.700;7.184;2022-09-01T04:27:49;3.20;;;2.57;;
7398;SDS011;3740;50.700;7.184;2022-09-01T04:30:19;2.53;;;2.37;;
7398;SDS011;3740;50.700;7.184;2022-09-01T04:32:49;3.00;;;2.80;;
7398;SDS011;3740;50.700;7.184;2022-09-01T04:35:16;2.73;;;2.53;;
7398;SDS011;3740;50.700;7.184;2022-09-01T04:37:43;2.93;;;2.73;;
7398;SDS011;3740;50.700;7.184;2022-09-01T04:40:14;3.03;;;2.70;;
7398;SDS011;3740;50.700;7.184;2022-09-01T04:42:46;2.93;;;2.73;;
7398;SDS011;3740;50.700;7.184;2022-09-01T04:45:11;3.07;;;2.80;;
7398;SDS011;3740;50.700;7.184;2022-09-01T04:47:38;3.10;;;2.70;;
7398;SDS011;3740;50.700;7.184;2022-09-01T04:50:06;2.70;;;2.50;;
7398;SDS011;3740;50.700;7.184;2022-09-01T04:52:42;2.93;;;2.73;;
7398;SDS011;3740;50.700;7.184;2022-09-01T04:55:11;2.90;;;2.60;;
7398;SDS011;3740;50.700;7.184;2022-09-01T04:57:41;3.17;;;2.73;;
7398;SDS011;3740;50.700;7.184;2022-09-01T05:00:15;4.30;;;2.80;;
7398;SDS011;3740;50.700;7.184;2022-09-01T05:02:50;3.13;;;2.93;;
7398;SDS011;3740;50.700;7.184;2022-09-01T05:05:25;3.10;;;2.80;;
7398;SDS011;3740;50.700;7.184;2022-09-01T05:07:53;3.10;;;2.80;;
7398;SDS011;3740;50.700;7.184;2022-09-01T05:10:20;3.27;;;2.97;;
7398;SDS011;3740;50.700;7.184;2022-09-01T05:12:47;2.83;;;2.63;;
7398;SDS011;3740;50.700;7.184;2022-09-01T05:15:14;2.83;;;2.60;;
7398;SDS011;3740;50.700;7.184;2022-09-01T05:17:41;3.10;;;2.90;;
7398;SDS011;3740;50.700;7.184;2022-09-01T05:20:09;2.80;;;2.60;;
7398;SDS011;3740;50.700;7.184;2022-09-01T05:22:36;2.80;;;2.60;;
7398;SDS011;3740;50.700;7.184;2022-09-01T05:25:05;2.93;;;2.73;;
7398;SDS011;3740;50.700;7.184;2022-09-01T05:27:39;2.93;;;2.57;;
7398;SDS011;3740;50.700;7.184;2022-09-01T05:30:06;2.90;;;2.70;;
7398;SDS011;3740;50.700;7.184;2022-09-01T05:32:33;3.03;;;2.80;;
7398;SDS011;3740;50.700;7.184;2022-09-01T05:35:03;2.83;;;2.50;;
7398;SDS011;3740;50.700;7.184;2022-09-01T05:37:32;3.03;;;2.80;;
7398;SDS011;3740;50.700;7.184;2022-09-01T05:40:01;3.00;;;2.80;;
7398;SDS011;3740;50.700;7.184;2022-09-01T05:42:32;2.90;;;2.70;;
7398;SDS011;3740;50.700;7.184;2022-09-01T05:44:58;3.27;;;2.97;;
7398;SDS011;3740;50.700;7.184;2022-09-01T05:47:26;2.97;;;2.50;;
7398;SDS011;3740;50.700;7.184;2022-09-01T05:49:52;3.53;;;3.23;;
7398;SDS011;3740;50.700;7.184;2022-09-01T05:52:22;2.93;;;2.73;;
7398;SDS011;3740;50.700;7.184;2022-09-01T05:54:50;2.90;;;2.70;;
7398;SDS011;3740;50.700;7.184;2022-09-01T05:57:16;3.30;;;2.60;;
7398;SDS011;3740;50.700;7.184;2022-09-01T05:59:43;2.90;;;2.70;;
7398;SDS011;3740;50.700;7.184;2022-09-01T06:02:10;3.13;;;2.87;;
7398;SDS011;3740;50.700;7.184;2022-09-01T06:04:37;3.30;;;3.00;;
7398;SDS011;3740;50.700;7.184;2022-09-01T06:07:06;3.00;;;2.80;;
7398;SDS011;3740;50.700;7.184;2022-09-01T06:09:37;3.13;;;2.63;;
7398;SDS011;3740;50.700;7.184;2022-09-01T06:12:04;3.07;;;2.87;;
7398;SDS011;3740;50.700;7.184;2022-09-01T06:14:30;4.30;;;3.30;;
7398;SDS011;3740;50.700;7.184;2022-09-01T06:16:56;3.40;;;2.80;;
7398;SDS011;3740;50.700;7.184;2022-09-01T06:19:22;3.30;;;3.00;;
7398;SDS011;3740;50.700;7.184;2022-09-01T06:21:47;3.30;;;3.10;;
7398;SDS011;3740;50.700;7.184;2022-09-01T06:24:13;3.27;;;2.97;;
7398;SDS011;3740;50.700;7.184;2022-09-01T06:26:41;4.23;;;3.83;;
7398;SDS011;3740;50.700;7.184;2022-09-01T06:29:08;7.07;;;5.10;;
7398;SDS011;3740;50.700;7.184;2022-09-01T06:31:40;5.60;;;5.10;;
7398;SDS011;3740;50.700;7.184;2022-09-01T06:34:08;5.40;;;5.00;;
7398;SDS011;3740;50.700;7.184;2022-09-01T06:36:40;5.55;;;5.15;;
7398;SDS011;3740;50.700;7.184;2022-09-01T06:39:08;6.77;;;5.20;;
7398;SDS011;3740;50.700;7.184;2022-09-01T06:41:38;5.37;;;4.87;;
7398;SDS011;3740;50.700;7.184;2022-09-01T06:44:03;7.47;;;5.50;;
7398;SDS011;3740;50.700;7.184;2022-09-01T06:46:29;6.87;;;5.60;;
7398;SDS011;3740;50.700;7.184;2022-09-01T06:48:55;6.20;;;5.50;;
7398;SDS011;3740;50.700;7.184;2022-09-01T06:51:22;6.23;;;5.63;;
7398;SDS011;3740;50.700;7.184;2022-09-01T06:53:50;6.13;;;5.53;;
7398;SDS011;3740;50.700;7.184;2022-09-01T06:56:24;6.20;;;5.60;;
7398;SDS011;3740;50.700;7.184;2022-09-01T06:58:52;6.43;;;5.83;;
7398;SDS011;3740;50.700;7.184;2022-09-01T07:01:19;6.10;;;5.50;;
7398;SDS011;3740;50.700;7.184;2022-09-01T07:03:47;5.50;;;5.00;;
7398;SDS011;3740;50.700;7.184;2022-09-01T07:06:15;4.70;;;4.20;;
7398;SDS011;3740;50.700;7.184;2022-09-01T07:08:42;4.43;;;4.10;;
7398;SDS011;3740;50.700;7.184;2022-09-01T07:11:17;5.50;;;5.00;;
7398;SDS011;3740;50.700;7.184;2022-09-01T07:13:52;5.10;;;4.70;;
7398;SDS011;3740;50.700;7.184;2022-09-01T07:16:19;4.75;;;4.35;;
7398;SDS011;3740;50.700;7.184;2022-09-01T07:18:51;5.33;;;3.90;;
7398;SDS011;3740;50.700;7.184;2022-09-01T07:21:21;5.17;;;3.47;;
7398;SDS011;3740;50.700;7.184;2022-09-01T07:23:46;4.43;;;3.23;;
7398;SDS011;3740;50.700;7.184;2022-09-01T07:26:12;4.65;;;3.33;;
7398;SDS011;3740;50.700;7.184;2022-09-01T07:28:47;3.10;;;2.80;;
7398;SDS011;3740;50.700;7.184;2022-09-01T07:31:18;4.05;;;2.70;;
7398;SDS011;3740;50.700;7.184;2022-09-01T07:33:52;3.77;;;2.70;;
7398;SDS011;3740;50.700;7.184;2022-09-01T07:36:21;2.50;;;2.30;;
7398;SDS011;3740;50.700;7.184;2022-09-01T07:38:46;3.10;;;2.58;;
7398;SDS011;3740;50.700;7.184;2022-09-01T07:41:23;2.83;;;2.50;;
7398;SDS011;3740;50.700;7.184;2022-09-01T07:43:52;3.73;;;2.60;;
7398;SDS011;3740;50.700;7.184;2022-09-01T07:46:20;2.75;;;2.55;;
7398;SDS011;3740;50.700;7.184;2022-09-01T07:48:47;3.00;;;2.70;;
7398;SDS011;3740;50.700;7.184;2022-09-01T07:51:15;3.33;;;3.03;;
7398;SDS011;3740;50.700;7.184;2022-09-01T07:53:46;3.03;;;2.72;;
7398;SDS011;3740;50.700;7.184;2022-09-01T07:56:14;5.90;;;2.90;;
7398;SDS011;3740;50.700;7.184;2022-09-01T07:58:41;3.43;;;2.70;;
7398;SDS011;3740;50.700;7.184;2022-09-01T08:01:07;2.40;;;2.20;;
7398;SDS011;3740;50.700;7.184;2022-09-01T08:03:33;4.75;;;2.78;;
7398;SDS011;3740;50.700;7.184;2022-09-01T08:06:03;4.22;;;2.40;;
7398;SDS011;3740;50.700;7.184;2022-09-01T08:08:36;2.88;;;2.67;;
7398;SDS011;3740;50.700;7.184;2022-09-01T08:11:04;3.63;;;2.33;;
7398;SDS011;3740;50.700;7.184;2022-09-01T08:13:30;2.70;;;2.50;;
7398;SDS011;3740;50.700;7.184;2022-09-01T08:15:57;2.38;;;2.17;;
7398;SDS011;3740;50.700;7.184;2022-09-01T08:18:22;2.80;;;2.50;;
7398;SDS011;3740;50.700;7.184;2022-09-01T08:20:48;3.47;;;2.50;;
7398;SDS011;3740;50.700;7.184;2022-09-01T08:23:18;3.72;;;2.60;;
7398;SDS011;3740;50.700;7.184;2022-09-01T08:25:45;2.65;;;2.22;;
7398;SDS011;3740;50.700;7.184;2022-09-01T08:28:12;2.47;;;2.25;;
7398;SDS011;3740;50.700;7.184;2022-09-01T08:30:40;2.42;;;2.13;;
7398;SDS011;3740;50.700;7.184;2022-09-01T08:33:08;2.40;;;2.20;;
7398;SDS011;3740;50.700;7.184;2022-09-01T08:35:38;2.10;;;2.00;;
7398;SDS011;3740;50.700;7.184;2022-09-01T08:38:06;2.50;;;2.30;;
7398;SDS011;3740;50.700;7.184;2022-09-01T08:40:32;2.95;;;2.30;;
7398;SDS011;3740;50.700;7.184;2022-09-01T08:48:03;3.15;;;2.13;;
7398;SDS011;3740;50.700;7.184;2022-09-01T08:50:55;2.30;;;2.10;;
7398;SDS011;3740;50.700;7.184;2022-09-01T08:53:36;2.35;;;2.15;;
7398;SDS011;3740;50.700;7.184;2022-09-01T08:56:09;2.08;;;1.98;;
7398;SDS011;3740;50.700;7.184;2022-09-01T08:58:37;2.15;;;2.03;;
7398;SDS011;3740;50.700;7.184;2022-09-01T09:01:07;2.05;;;1.95;;
7398;SDS011;3740;50.700;7.184;2022-09-01T09:06:24;3.78;;;2.05;;
7398;SDS011;3740;50.700;7.184;2022-09-01T09:09:06;2.70;;;2.00;;
7398;SDS011;3740;50.700;7.184;2022-09-01T09:17:26;1.88;;;1.77;;
7398;SDS011;3740;50.700;7.184;2022-09-01T09:20:06;1.80;;;1.70;;
7398;SDS011;3740;50.700;7.184;2022-09-01T09:22:32;3.40;;;2.38;;
7398;SDS011;3740;50.700;7.184;2022-09-01T09:25:02;1.83;;;1.73;;
7398;SDS011;3740;50.700;7.184;2022-09-01T09:27:34;2.08;;;1.90;;
7398;SDS011;3740;50.700;7.184;2022-09-01T09:30:06;2.28;;;2.10;;
7398;SDS011;3740;50.700;7.184;2022-09-01T09:32:50;1.83;;;1.73;;
7398;SDS011;3740;50.700;7.184;2022-09-01T09:35:21;1.80;;;1.70;;
7398;SDS011;3740;50.700;7.184;2022-09-01T09:37:50;2.72;;;2.38;;
7398;SDS011;3740;50.700;7.184;2022-09-01T09:40:21;3.42;;;2.00;;
7398;SDS011;3740;50.700;7.184;2022-09-01T09:47:58;2.15;;;1.95;;
7398;SDS011;3740;50.700;7.184;2022-09-01T09:50:32;3.35;;;2.00;;
7398;SDS011;3740;50.700;7.184;2022-09-01T09:55:59;3.20;;;1.92;;
7398;SDS011;3740;50.700;7.184;2022-09-01T09:58:37;2.40;;;2.20;;
7398;SDS011;3740;50.700;7.184;2022-09-01T10:01:14;2.40;;;2.03;;
7398;SDS011;3740;50.700;7.184;2022-09-01T10:03:57;2.20;;;2.00;;
7398;SDS011;3740;50.700;7.184;2022-09-01T10:09:10;2.55;;;2.35;;
7398;SDS011;3740;50.700;7.184;2022-09-01T10:11:56;2.65;;;2.45;;
7398;SDS011;3740;50.700;7.184;2022-09-01T10:14:26;2.60;;;2.40;;
7398;SDS011;3740;50.700;7.184;2022-09-01T10:16:59;2.60;;;2.42;;
7398;SDS011;3740;50.700;7.184;2022-09-01T10:19:28;3.63;;;2.40;;
7398;SDS011;3740;50.700;7.184;2022-09-01T10:21:58;2.70;;;2.50;;
7398;SDS011;3740;50.700;7.184;2022-09-01T10:24:28;2.55;;;2.35;;
7398;SDS011;3740;50.700;7.184;2022-09-01T10:27:00;2.63;;;2.42;;
7398;SDS011;3740;50.700;7.184;2022-09-01T10:29:48;3.75;;;2.97;;
7398;SDS011;3740;50.700;7.184;2022-09-01T10:32:17;2.28;;;2.08;;
7398;SDS011;3740;50.700;7.184;2022-09-01T10:34:50;2.40;;;2.20;;
7398;SDS011;3740;50.700;7.184;2022-09-01T10:37:17;2.72;;;2.53;;
7398;SDS011;3740;50.700;7.184;2022-09-01T10:42:54;2.30;;;2.20;;
7398;SDS011;3740;50.700;7.184;2022-09-01T10:50:48;2.63;;;2.42;;
7398;SDS011;3740;50.700;7.184;2022-09-01T10:53:37;1.90;;;1.80;;
7398;SDS011;3740;50.700;7.184;2022-09-01T10:56:16;2.70;;;2.50;;
7398;SDS011;3740;50.700;7.184;2022-09-01T11:04:09;2.58;;;2.33;;
7398;SDS011;3740;50.700;7.184;2022-09-01T11:06:43;2.30;;;2.10;;
7398;SDS011;3740;50.700;7.184;2022-09-01T11:09:22;2.70;;;2.05;;
7398;SDS011;3740;50.700;7.184;2022-09-01T11:12:01;2.20;;;2.00;;
7398;SDS011;3740;50.700;7.184;2022-09-01T11:14:32;2.50;;;2.30;;
7398;SDS011;3740;50.700;7.184;2022-09-01T11:28:00;2.58;;;1.88;;
7398;SDS011;3740;50.700;7.184;2022-09-01T11:36:28;2.05;;;1.95;;
7398;SDS011;3740;50.700;7.184;2022-09-01T11:44:10;2.35;;;2.15;;
7398;SDS011;3740;50.700;7.184;2022-09-01T11:46:39;2.55;;;2.38;;
7398;SDS011;3740;50.700;7.184;2022-09-01T11:49:09;2.53;;;2.35;;
7398;SDS011;3740;50.700;7.184;2022-09-01T11:51:53;2.67;;;2.50;;
7398;SDS011;3740;50.700;7.184;2022-09-01T11:54:21;2.20;;;2.10;;
7398;SDS011;3740;50.700;7.184;2022-09-01T11:56:48;2.50;;;2.30;;
7398;SDS011;3740;50.700;7.184;2022-09-01T11:59:28;2.33;;;2.13;;
7398;SDS011;3740;50.700;7.184;2022-09-01T12:01:55;2.47;;;2.30;;
7398;SDS011;3740;50.700;7.184;2022-09-01T12:06:55;2.50;;;2.30;;
7398;SDS011;3740;50.700;7.184;2022-09-01T12:09:34;2.42;;;2.20;;
7398;SDS011;3740;50.700;7.184;2022-09-01T12:12:03;2.35;;;2.15;;
7398;SDS011;3740;50.700;7.184;2022-09-01T12:14:31;2.38;;;2.20;;
7398;SDS011;3740;50.700;7.184;2022-09-01T12:16:59;2.03;;;1.92;;
7398;SDS011;3740;50.700;7.184;2022-09-01T12:19:32;2.10;;;2.00;;
7398;SDS011;3740;50.700;7.184;2022-09-01T12:22:00;2.08;;;1.98;;
7398;SDS011;3740;50.700;7.184;2022-09-01T12:24:38;2.10;;;2.00;;
7398;SDS011;3740;50.700;7.184;2022-09-01T12:27:10;2.30;;;2.10;;
7398;SDS011;3740;50.700;7.184;2022-09-01T12:29:38;2.40;;;2.30;;
7398;SDS011;3740;50.700;7.184;2022-09-01T12:32:04;2.40;;;2.20;;
7398;SDS011;3740;50.700;7.184;2022-09-01T12:39:45;2.25;;;2.15;;
7398;SDS011;3740;50.700;7.184;2022-09-01T12:49:58;2.67;;;2.40;;
7398;SDS011;3740;50.700;7.184;2022-09-01T12:52:54;3.42;;;2.63;;
7398;SDS011;3740;50.700;7.184;2022-09-01T12:55:28;2.95;;;2.60;;
7398;SDS011;3740;50.700;7.184;2022-09-01T12:58:01;2.50;;;2.30;;
7398;SDS011;3740;50.700;7.184;2022-09-01T13:00:33;2.42;;;2.33;;
7398;SDS011;3740;50.700;7.184;2022-09-01T13:03:18;2.75;;;2.45;;
7398;SDS011;3740;50.700;7.184;2022-09-01T13:05:54;2.67;;;2.45;;
7398;SDS011;3740;50.700;7.184;2022-09-01T13:08:32;2.80;;;2.60;;
7398;SDS011;3740;50.700;7.184;2022-09-01T13:11:03;3.28;;;2.50;;
7398;SDS011;3740;50.700;7.184;2022-09-01T13:13:31;2.70;;;2.50;;
7398;SDS011;3740;50.700;7.184;2022-09-01T13:15:59;2.35;;;2.25;;
7398;SDS011;3740;50.700;7.184;2022-09-01T13:18:27;3.35;;;2.60;;
7398;SDS011;3740;50.700;7.184;2022-09-01T13:20:53;3.38;;;2.90;;
7398;SDS011;3740;50.700;7.184;2022-09-01T13:23:20;2.88;;;2.67;;
7398;SDS011;3740;50.700;7.184;2022-09-01T13:25:49;2.40;;;2.30;;
7398;SDS011;3740;50.700;7.184;2022-09-01T13:28:15;2.60;;;2.40;;
7398;SDS011;3740;50.700;7.184;2022-09-01T13:30:46;2.88;;;2.60;;
7398;SDS011;3740;50.700;7.184;2022-09-01T13:33:17;2.70;;;2.47;;
7398;SDS011;3740;50.700;7.184;2022-09-01T13:35:42;2.55;;;2.45;;
7398;SDS011;3740;50.700;7.184;2022-09-01T13:38:09;2.50;;;2.35;;
7398;SDS011;3740;50.700;7.184;2022-09-01T13:40:34;2.50;;;2.40;;
7398;SDS011;3740;50.700;7.184;2022-09-01T13:43:03;2.80;;;2.60;;
7398;SDS011;3740;50.700;7.184;2022-09-01T13:45:29;2.70;;;2.33;;
7398;SDS011;3740;50.700;7.184;2022-09-01T13:47:55;2.38;;;2.17;;
7398;SDS011;3740;50.700;7.184;2022-09-01T13:50:21;2.83;;;2.63;;
7398;SDS011;3740;50.700;7.184;2022-09-01T13:52:50;2.80;;;2.60;;
7398;SDS011;3740;50.700;7.184;2022-09-01T13:55:20;2.30;;;2.15;;
7398;SDS011;3740;50.700;7.184;2022-09-01T13:57:47;2.67;;;2.47;;
7398;SDS011;3740;50.700;7.184;2022-09-01T14:00:14;3.08;;;2.83;;
7398;SDS011;3740;50.700;7.184;2022-09-01T14:02:43;3.10;;;2.80;;
7398;SDS011;3740;50.700;7.184;2022-09-01T14:05:31;3.20;;;2.90;;
7398;SDS011;3740;50.700;7.184;2022-09-01T14:07:59;2.78;;;2.60;;
7398;SDS011;3740;50.700;7.184;2022-09-01T14:10:25;3.40;;;2.63;;
7398;SDS011;3740;50.700;7.184;2022-09-01T14:12:53;2.55;;;2.35;;
7398;SDS011;3740;50.700;7.184;2022-09-01T14:15:19;2.80;;;2.60;;
7398;SDS011;3740;50.700;7.184;2022-09-01T14:17:46;2.40;;;2.30;;
7398;SDS011;3740;50.700;7.184;2022-09-01T14:20:16;2.65;;;2.47;;
7398;SDS011;3740;50.700;7.184;2022-09-01T14:22:44;3.10;;;2.90;;
7398;SDS011;3740;50.700;7.184;2022-09-01T14:25:10;2.72;;;2.53;;
7398;SDS011;3740;50.700;7.184;2022-09-01T14:27:36;3.55;;;2.50;;
7398;SDS011;3740;50.700;7.184;2022-09-01T14:30:05;2.85;;;2.65;;
7398;SDS011;3740;50.700;7.184;2022-09-01T14:32:40;3.03;;;2.50;;
7398;SDS011;3740;50.700;7.184;2022-09-01T14:35:05;2.80;;;2.60;;
7398;SDS011;3740;50.700;7.184;2022-09-01T14:37:32;2.45;;;2.35;;
7398;SDS011;3740;50.700;7.184;2022-09-01T14:40:00;2.75;;;2.50;;
7398;SDS011;3740;50.700;7.184;2022-09-01T14:42:26;2.45;;;2.35;;
7398;SDS011;3740;50.700;7.184;2022-09-01T14:44:54;2.80;;;2.60;;
7398;SDS011;3740;50.700;7.184;2022-09-01T14:47:20;2.42;;;2.30;;
7398;SDS011;3740;50.700;7.184;2022-09-01T14:49:48;2.80;;;2.60;;
7398;SDS011;3740;50.700;7.184;2022-09-01T14:52:14;2.30;;;2.10;;
7398;SDS011;3740;50.700;7.184;2022-09-01T14:54:42;2.40;;;2.30;;
7398;SDS011;3740;50.700;7.184;2022-09-01T14:57:08;2.80;;;2.60;;
7398;SDS011;3740;50.700;7.184;2022-09-01T14:59:34;2.63;;;2.42;;
7398;SDS011;3740;50.700;7.184;2022-09-01T15:02:01;2.58;;;2.38;;
7398;SDS011;3740;50.700;7.184;2022-09-01T15:04:27;2.72;;;2.53;;
7398;SDS011;3740;50.700;7.184;2022-09-01T15:06:53;2.45;;;2.35;;
7398;SDS011;3740;50.700;7.184;2022-09-01T15:09:19;2.40;;;2.30;;
7398;SDS011;3740;50.700;7.184;2022-09-01T15:11:45;2.63;;;2.42;;
7398;SDS011;3740;50.700;7.184;2022-09-01T15:14:11;2.45;;;2.35;;
7398;SDS011;3740;50.700;7.184;2022-09-01T15:16:36;2.80;;;2.60;;
7398;SDS011;3740;50.700;7.184;2022-09-01T15:19:06;2.42;;;2.25;;
7398;SDS011;3740;50.700;7.184;2022-09-01T15:21:34;2.38;;;2.28;;
7398;SDS011;3740;50.700;7.184;2022-09-01T15:24:01;3.10;;;2.90;;
7398;SDS011;3740;50.700;7.184;2022-09-01T15:26:30;2.60;;;2.40;;
7398;SDS011;3740;50.700;7.184;2022-09-01T15:28:59;2.45;;;2.35;;
7398;SDS011;3740;50.700;7.184;2022-09-01T15:31:26;2.58;;;2.38;;
7398;SDS011;3740;50.700;7.184;2022-09-01T15:33:55;2.58;;;2.40;;
7398;SDS011;3740;50.700;7.184;2022-09-01T15:36:23;2.47;;;2.28;;
7398;SDS011;3740;50.700;7.184;2022-09-01T15:38:50;2.53;;;2.40;;
7398;SDS011;3740;50.700;7.184;2022-09-01T15:41:17;2.45;;;2.25;;
7398;SDS011;3740;50.700;7.184;2022-09-01T15:43:44;2.45;;;2.30;;
7398;SDS011;3740;50.700;7.184;2022-09-01T15:46:11;2.50;;;2.28;;
7398;SDS011;3740;50.700;7.184;2022-09-01T15:48:38;2.15;;;2.05;;
7398;SDS011;3740;50.700;7.184;2022-09-01T15:53:48;2.10;;;2.00;;
7398;SDS011;3740;50.700;7.184;2022-09-01T15:56:16;1.92;;;1.83;;
7398;SDS011;3740;50.700;7.184;2022-09-01T15:58:43;2.10;;;2.00;;
7398;SDS011;3740;50.700;7.184;2022-09-01T16:01:09;2.28;;;2.13;;
7398;SDS011;3740;50.700;7.184;2022-09-01T16:03:35;2.25;;;2.05;;
7398;SDS011;3740;50.700;7.184;2022-09-01T16:06:00;2.42;;;2.33;;
7398;SDS011;3740;50.700;7.184;2022-09-01T16:08:26;2.15;;;2.03;;
7398;SDS011;3740;50.700;7.184;2022-09-01T16:10:52;2.47;;;2.30;;
7398;SDS011;3740;50.700;7.184;2022-09-01T16:13:19;2.72;;;2.50;;
7398;SDS011;3740;50.700;7.184;2022-09-01T16:15:48;2.70;;;2.50;;
7398;SDS011;3740;50.700;7.184;2022-09-01T16:18:27;3.75;;;3.10;;
7398;SDS011;3740;50.700;7.184;2022-09-01T16:23:51;2.90;;;2.70;;
7398;SDS011;3740;50.700;7.184;2022-09-01T16:26:18;3.20;;;2.67;;
7398;SDS011;3740;50.700;7.184;2022-09-01T16:28:50;2.78;;;2.58;;
7398;SDS011;3740;50.700;7.184;2022-09-01T16:31:21;2.83;;;2.35;;
7398;SDS011;3740;50.700;7.184;2022-09-01T16:33:51;2.58;;;2.45;;
7398;SDS011;3740;50.700;7.184;2022-09-01T16:36:35;2.22;;;2.13;;
7398;SDS011;3740;50.700;7.184;2022-09-01T16:57:01;2.60;;;2.40;;
7398;SDS011;3740;50.700;7.184;2022-09-01T16:58:59;2.63;;;2.42;;
7398;SDS011;3740;50.700;7.184;2022-09-01T17:07:50;2.72;;;2.53;;
7398;SDS011;3740;50.700;7.184;2022-09-01T17:16:15;2.92;;;2.72;;
7398;SDS011;3740;50.700;7.184;2022-09-01T17:18:54;2.92;;;2.72;;
7398;SDS011;3740;50.700;7.184;2022-09-01T17:26:57;3.35;;;3.00;;
7398;SDS011;3740;50.700;7.184;2022-09-01T17:29:31;3.33;;;3.03;;
7398;SDS011;3740;50.700;7.184;2022-09-01T17:32:08;2.97;;;2.63;;